Celebrity Reflection — 9HA3047 — position and weather

sailwx.info

Track history (hours):
 
Tides and Currents Weather Stations Pressure Air Temp Water Temp Dewpoint Dewpoint Depression Visibility Wind Speed Wind Dir Waves Ship Positions

Celebrity Reflection

Last reported at 2019-Jul-20 00:31 UTC. Time now 2019-Jul-20 00:59 UTC.
Position N 52°28' E 004°36'.

Length 319 m; draft 8.6 m.

Type: Passenger vessel. MMSI: 229074000.

Date/timePositionNaut miles runAvg speedWind from/ knotsBaromVisibWave heightAir tempDewpointWater temp
2019-Jul-20 00:31N 52°28' E 004°36'1 2.6
2019-Jul-20 00:01N 52°28' E 004°34'611.4
2019-Jul-19 23:31N 52°29' E 004°25'612.9
2019-Jul-19 23:00N 52°29' E 004°14'30119361.6
2019-Jul-19 23:00N 52°24' W 004°00'294609.3 160 / 201009.010.8 19.019.018.0
2019-Jul-19 22:31N 52°28' E 004°02'714.1
2019-Jul-19 22:01N 52°25' E 003°52'714.4
2019-Jul-19 21:31N 52°21' E 003°42'714.2
2019-Jul-19 21:01N 52°17' E 003°32'2144.5
2019-Jul-19 21:00N 52°18' E 003°36'919.3 170 / 171011.0 0.3 18.012.7
2019-Jul-19 20:30N 52°12' E 003°24'713.6
2019-Jul-19 20:01N 52°10' E 003°13'1015.2
2019-Jul-19 19:20N 52°04' E 003°00'1617.4
2019-Jul-19 18:27N 51°52' E 002°43'917.3
2019-Jul-19 17:56N 51°44' E 002°40'1016.4
2019-Jul-19 17:20N 51°34' E 002°42'617.0
2019-Jul-19 17:00N 51°28' E 002°42'713.6
2019-Jul-19 16:30N 51°22' E 002°45'612.7
2019-Jul-19 16:00N 51°23' E 002°55'3193.1
2019-Jul-19 16:00N 51°24' E 003°00'4 8.3 230 / 141012.010.8 20.018.420.0
2019-Jul-19 15:30N 51°24' E 003°06'510.1
2019-Jul-19 15:00N 51°20' E 003°12'0 0.1
2019-Jul-19 14:30N 51°20' E 003°12'0 0.0
2019-Jul-19 14:00N 51°20' E 003°12'0 0.0
2019-Jul-19 13:30N 51°20' E 003°12'0 0.0
2019-Jul-19 12:59N 51°20' E 003°12'0 0.0
2019-Jul-19 12:29N 51°20' E 003°12'0 0.0
2019-Jul-19 11:59N 51°20' E 003°12'0 0.0
2019-Jul-19 11:30N 51°20' E 003°12'0 0.0
2019-Jul-19 11:00N 51°20' E 003°12'2188.2
2019-Jul-19 11:00N 51°18' E 003°12'2 5.0 280 / 41009.0 21.8 8.022.3
2019-Jul-19 10:30N 51°20' E 003°12'0 0.0
2019-Jul-19 10:00N 51°20' E 003°12'0 0.0
2019-Jul-19 09:31N 51°20' E 003°12'0 0.0
2019-Jul-19 09:00N 51°20' E 003°12'0 0.0
2019-Jul-19 08:30N 51°20' E 003°12'0 0.0
2019-Jul-19 08:00N 51°20' E 003°12'2188.2
2019-Jul-19 08:00N 51°18' E 003°12'2 4.7 200 / 151013.0 0.3 22.011.3
2019-Jul-19 07:28N 51°20' E 003°12'0 0.0
2019-Jul-19 06:59N 51°20' E 003°12'0 0.0
2019-Jul-19 06:30N 51°20' E 003°12'0 0.0
2019-Jul-19 06:00N 51°20' E 003°12'0 0.0
2019-Jul-19 05:30N 51°20' E 003°12'0 0.0
2019-Jul-19 05:00N 51°20' E 003°12'0 0.4
2019-Jul-19 04:30N 51°21' E 003°12'5 9.1
2019-Jul-19 04:00N 51°24' E 003°07'10768.3
2019-Jul-19 04:00N 51°18' E 002°54'4 8.4 260 / 91011.010.8 18.016.320.0
2019-Jul-19 03:30N 51°22' E 002°54'612.8
2019-Jul-19 03:00N 51°22' E 002°44'2 4.6
2019-Jul-19 02:30N 51°22' E 002°40'3 5.3
2019-Jul-19 02:00N 51°22' E 002°36'5339.5
2019-Jul-19 02:00N 51°18' E 002°30'4 8.4 270 / 111009.010.8 18.018.019.0
2019-Jul-19 01:30N 51°22' E 002°31'4 7.8
2019-Jul-19 01:00N 51°21' E 002°25'4 7.7
2019-Jul-19 00:30N 51°19' E 002°19'4 7.1
2019-Jul-19 00:00N 51°18' E 002°14'3 6.6
2019-Jul-18 23:31N 51°16' E 002°10'3 6.8
2019-Jul-18 23:00N 51°14' E 002°05'3 6.7
2019-Jul-18 22:30N 51°13' E 002°00'3 6.2
2019-Jul-18 22:00N 51°11' E 001°56'194.7
2019-Jul-18 22:00N 51°12' E 001°54'3 5.7 240 / 141010.0 0.3 17.013.5
2019-Jul-18 21:30N 51°10' E 001°52'3 6.0
2019-Jul-18 21:00N 51°08' E 001°48'3 5.9
2019-Jul-18 20:30N 51°06' E 001°44'3 5.8
2019-Jul-18 20:00N 51°04' E 001°41'3 5.9
2019-Jul-18 19:30N 51°02' E 001°37'3 5.7
2019-Jul-18 19:00N 51°01' E 001°33'3 5.1
2019-Jul-18 18:30N 51°02' E 001°29'3 5.8
2019-Jul-18 18:00N 51°04' E 001°26'2 3.9
2019-Jul-18 17:30N 51°03' E 001°23'1 2.8
2019-Jul-18 17:00N 51°04' E 001°21'5301.5
2019-Jul-18 17:00N 51°00' E 001°18'713.6 220 / 211009.010.8 18.015.718.0
2019-Jul-18 16:30N 51°06' E 001°21'1 2.3
2019-Jul-18 16:01N 51°07' E 001°19'0 0.0
2019-Jul-18 15:28N 51°07' E 001°19'0 0.0
2019-Jul-18 14:58N 51°07' E 001°19'0 0.0
2019-Jul-18 14:30N 51°07' E 001°19'0 0.0
2019-Jul-18 14:00N 51°07' E 001°19'0 0.0
2019-Jul-18 13:29N 51°07' E 001°19'0 0.0
2019-Jul-18 12:58N 51°07' E 001°19'0 0.0
2019-Jul-18 12:28N 51°07' E 001°19'0 0.0
2019-Jul-18 11:56N 51°07' E 001°19'0 0.0
2019-Jul-18 11:30N 51°07' E 001°19'0 0.0
2019-Jul-18 10:55N 51°07' E 001°19'0 0.0
2019-Jul-18 10:24N 51°07' E 001°19'1 2.8
2019-Jul-18 10:00N 51°06' E 001°18'1695.7 210 / 281009.0 0.1 16.014.3
2019-Jul-18 09:59N 51°07' E 001°19'0 0.0
2019-Jul-18 09:30N 51°07' E 001°19'0 0.0
2019-Jul-18 09:00N 51°07' E 001°19'0 0.0
2019-Jul-18 08:29N 51°07' E 001°19'0 0.0
2019-Jul-18 07:59N 51°07' E 001°19'0 0.0
2019-Jul-18 07:30N 51°07' E 001°19'1 2.3
2019-Jul-18 07:00N 51°06' E 001°18'130.0 220 / 201011.010.8 18.016.219.0
2019-Jul-18 06:57N 51°07' E 001°19'0 0.0
2019-Jul-18 06:31N 51°07' E 001°19'0 0.2
2019-Jul-18 06:00N 51°07' E 001°20'3 7.0
2019-Jul-18 05:30N 51°07' E 001°25'4 7.7
2019-Jul-18 05:00N 51°04' E 001°29'4 7.1
2019-Jul-18 04:31N 51°01' E 001°31'510.4
2019-Jul-18 04:00N 50°56' E 001°27'611.9
2019-Jul-18 03:30N 50°51' E 001°24'612.0
2019-Jul-18 03:00N 50°45' E 001°22'4388.6
2019-Jul-18 03:00N 50°42' E 001°18'3 5.2 240 / 141009.010.8 17.015.318.0
2019-Jul-18 02:28N 50°40' E 001°16'612.1
2019-Jul-18 01:59N 50°36' E 001°09'612.2
2019-Jul-18 01:30N 50°32' E 001°02'612.1
2019-Jul-18 01:00N 50°29' E 000°53'613.2
2019-Jul-18 00:30N 50°26' E 000°44'713.4
2019-Jul-18 00:00N 50°24' E 000°34'612.5
2019-Jul-17 23:30N 50°23' E 000°25'612.4
2019-Jul-17 23:00N 50°21' E 000°16'712.4
2019-Jul-17 22:29N 50°18' E 000°06'612.0
2019-Jul-17 22:00N 50°14' W 000°00'2129.0
2019-Jul-17 22:00N 50°12' E 000°00'4 9.0 250 / 161012.010.8 17.017.016.0
2019-Jul-17 21:30N 50°08' W 000°03'612.4
2019-Jul-17 21:00N 50°02' W 000°05'612.4
2019-Jul-17 20:30N 49°56' W 000°07'612.4
2019-Jul-17 20:00N 49°50' W 000°09'3158.2
2019-Jul-17 20:00N 49°48' W 000°06'510.5 280 / 151012.0 0.3 16.012.4
2019-Jul-17 19:31N 49°44' W 000°10'612.4
2019-Jul-17 19:00N 49°38' W 000°05'612.7
2019-Jul-17 18:30N 49°33' W 000°01'611.3
2019-Jul-17 18:00N 49°29' E 000°06'0 0.6
2019-Jul-17 17:28N 49°29' E 000°06'0 0.0
2019-Jul-17 16:58N 49°29' E 000°06'0 0.0
2019-Jul-17 16:28N 49°29' E 000°06'0 0.0
2019-Jul-17 15:59N 49°29' E 000°06'0 0.0
2019-Jul-17 15:28N 49°29' E 000°06'919.7
2019-Jul-17 15:00N 49°24' W 000°06'9429.0 340 / 61014.010.8 21.019.420.0
2019-Jul-17 14:58N 49°29' E 000°06'0 0.0
2019-Jul-17 14:30N 49°29' E 000°06'918.4
2019-Jul-17 14:00N 49°24' W 000°06'9292.1 320 / 81013.027.0 19.9 8.720.2
2019-Jul-17 13:58N 49°29' E 000°06'0 0.0
2019-Jul-17 13:29N 49°29' E 000°06'0 0.0
2019-Jul-17 12:58N 49°29' E 000°06'0 0.0
2019-Jul-17 12:28N 49°29' E 000°06'0 0.0
2019-Jul-17 12:00N 49°29' E 000°06'0 0.0
2019-Jul-17 11:30N 49°29' E 000°06'0 0.0
2019-Jul-17 11:00N 49°29' E 000°06'0 0.0
2019-Jul-17 10:29N 49°29' E 000°06'0 0.0
2019-Jul-17 10:00N 49°29' E 000°06'0 0.0
2019-Jul-17 09:30N 49°29' E 000°06'0 0.0
2019-Jul-17 09:00N 49°29' E 000°06'0 0.0
2019-Jul-17 08:30N 49°29' E 000°06'0 0.0
2019-Jul-17 07:59N 49°29' E 000°06'0 0.0
2019-Jul-17 07:29N 49°29' E 000°06'919.0
2019-Jul-17 07:00N 49°24' W 000°06'92824.0 170 / 31014.0 0.3 19.0 9.6
2019-Jul-17 06:59N 49°29' E 000°06'0 0.0
2019-Jul-17 06:28N 49°29' E 000°06'0 0.0
2019-Jul-17 05:59N 49°29' E 000°06'0 0.0
2019-Jul-17 05:28N 49°29' E 000°06'0 0.0
2019-Jul-17 04:58N 49°29' E 000°06'0 0.3
2019-Jul-17 04:31N 49°29' E 000°07'1 2.5
2019-Jul-17 04:00N 49°29' E 000°05'713.6
2019-Jul-17 03:30N 49°31' W 000°05'4 8.3
2019-Jul-17 03:00N 49°32' W 000°11'4 8.0
2019-Jul-17 02:30N 49°34' W 000°17'4 8.1
2019-Jul-17 02:00N 49°36' W 000°22'7427.3
2019-Jul-17 02:00N 49°30' W 000°18'1021.2 340 / 61016.010.8 16.014.318.0
2019-Jul-17 01:30N 49°38' W 000°28'4 7.9
2019-Jul-17 01:00N 49°40' W 000°33'4 7.9
2019-Jul-17 00:30N 49°42' W 000°38'4 7.6
2019-Jul-17 00:00N 49°44' W 000°43'3 6.6
2019-Jul-16 23:30N 49°46' W 000°47'3 6.8
2019-Jul-16 23:00N 49°48' W 000°52'6445.9
2019-Jul-16 23:00N 49°42' W 000°48'919.3 360 / 61016.010.8 14.410.813.2
2019-Jul-16 22:30N 49°50' W 000°56'3 6.8
2019-Jul-16 22:00N 49°51' W 001°01'2 4.5
2019-Jul-16 21:30N 49°51' W 001°04'2 4.7
2019-Jul-16 21:01N 49°50' W 001°08'2121.4
2019-Jul-16 21:00N 49°48' W 001°06'4 7.5 010 / 21015.0 0.3 15.0 9.2
2019-Jul-16 20:30N 49°49' W 001°11'3 5.3
2019-Jul-16 20:01N 49°48' W 001°15'3 5.2
2019-Jul-16 19:31N 49°47' W 001°19'4 7.7
2019-Jul-16 19:01N 49°46' W 001°25'4 7.1
2019-Jul-16 18:31N 49°45' W 001°30'3 5.9
2019-Jul-16 18:01N 49°44' W 001°34'3 5.9
2019-Jul-16 17:31N 49°43' W 001°38'3 5.3
2019-Jul-16 17:00N 49°40' W 001°37'2294.9
2019-Jul-16 17:00N 49°42' W 001°36'3 4.3 090 / 101017.010.8 18.016.318.0
2019-Jul-16 16:15N 49°39' W 001°37'0 0.0
2019-Jul-16 15:15N 49°39' W 001°37'0 0.0
2019-Jul-16 14:15N 49°39' W 001°37'3 0.7
2019-Jul-16 10:00N 49°36' W 001°36'0 0.0 050 / 161018.0 18.3 9.617.6
2019-Jul-16 09:00N 49°36' W 001°36'3 0.8 080 / 91020.0 0.3 20.010.9
2019-Jul-16 04:31N 49°39' W 001°37'0 0.7
2019-Jul-16 04:28N 49°39' W 001°37'2 5.1
2019-Jul-16 04:00N 49°41' W 001°40'612.8
2019-Jul-16 03:30N 49°45' W 001°47'714.9
2019-Jul-16 03:00N 49°47' W 001°58'815.8
2019-Jul-16 02:29N 49°51' W 002°10'714.6
2019-Jul-16 02:00N 49°53' W 002°20'7452.8
2019-Jul-16 02:00N 49°48' W 002°12'1327.6 060 / 111021.010.8 16.012.816.0
2019-Jul-16 01:30N 49°52' W 002°32'815.1
2019-Jul-16 01:00N 49°50' W 002°43'815.1
2019-Jul-16 00:30N 49°50' W 002°55'714.9
2019-Jul-16 00:00N 49°50' W 003°06'815.0
2019-Jul-15 23:30N 49°50' W 003°18'815.3
2019-Jul-15 23:00N 49°51' W 003°30'815.3
2019-Jul-15 22:30N 49°51' W 003°42'815.3
2019-Jul-15 22:00N 49°51' W 003°53'3197.2
2019-Jul-15 22:00N 49°48' W 003°54'816.7 020 / 111019.0 0.3 16.0 8.1
2019-Jul-15 21:30N 49°51' W 004°05'815.3
2019-Jul-15 21:00N 49°52' W 004°17'815.4
2019-Jul-15 20:30N 49°52' W 004°29'815.4
2019-Jul-15 20:00N 49°52' W 004°41'815.4
2019-Jul-15 19:29N 49°52' W 004°53'815.1
2019-Jul-15 18:59N 49°52' W 005°05'715.3
2019-Jul-15 18:30N 49°52' W 005°17'815.1
2019-Jul-15 18:00N 49°52' W 005°28'2015.0
2019-Jul-15 16:39N 49°55' W 005°60'216.3
2019-Jul-15 16:31N 49°57' W 006°01'816.4
2019-Jul-15 16:00N 50°05' W 006°01'815.6
2019-Jul-15 15:30N 50°13' W 006°00'815.2
2019-Jul-15 15:00N 50°21' W 006°00'3158.7
2019-Jul-15 15:00N 50°18' W 006°00'1020.9 170 / 161019.010.8 20.016.718.0
2019-Jul-15 14:31N 50°28' W 006°00'2617.3
2019-Jul-15 13:00N 50°54' W 005°54'1214.0 140 / 71022.027.0 17.0 7.015.8
2019-Jul-15 12:08N 51°05' W 005°60'216.2
2019-Jul-15 12:00N 51°08' W 005°60'816.2
2019-Jul-15 11:30N 51°16' W 005°60'816.3
2019-Jul-15 11:00N 51°24' W 005°60'816.5
2019-Jul-15 10:30N 51°32' W 005°60'916.3
2019-Jul-15 09:58N 51°41' W 005°59'816.2
2019-Jul-15 09:30N 51°48' W 005°55'815.9
2019-Jul-15 09:00N 51°56' W 005°52'815.9
2019-Jul-15 08:30N 52°03' W 005°49'815.2
2019-Jul-15 08:00N 52°11' W 005°46'8524.3
2019-Jul-15 08:00N 52°18' W 005°42'3 5.7 190 / 61021.0 0.1 15.011.3
2019-Jul-15 07:30N 52°19' W 005°46'715.1
2019-Jul-15 07:00N 52°26' W 005°45'815.2
2019-Jul-15 06:30N 52°33' W 005°43'815.2
2019-Jul-15 06:00N 52°41' W 005°41'815.3
2019-Jul-15 05:31N 52°49' W 005°40'815.6
2019-Jul-15 05:01N 52°56' W 005°38'815.4
2019-Jul-15 04:30N 53°04' W 005°36'815.8
2019-Jul-15 04:00N 53°12' W 005°34'1312.3
2019-Jul-15 03:00N 53°24' W 005°30'3518.8 200 / 21022.010.8 16.014.116.0
2019-Jul-15 01:09N 53°58' W 005°23'215.8
2019-Jul-15 01:01N 54°01' W 005°23'917.7
2019-Jul-15 00:30N 54°10' W 005°21'816.4
2019-Jul-15 00:00N 54°18' W 005°20'1127.7
2019-Jul-15 00:00N 54°18' W 005°18'816.4 080 / 71020.027.0 14.210.015.8
2019-Jul-14 23:30N 54°26' W 005°20'816.1
2019-Jul-14 23:00N 54°34' W 005°24'815.7
2019-Jul-14 22:31N 54°41' W 005°27'713.2
2019-Jul-14 22:00N 54°43' W 005°38'612.2
2019-Jul-14 21:30N 54°41' W 005°48'5 8.8
2019-Jul-14 20:58N 54°38' W 005°53'0 0.1
2019-Jul-14 20:29N 54°38' W 005°53'3 6.7
2019-Jul-14 20:00N 54°36' W 005°48'3705.7 090 / 71022.0 0.3 16.0 8.1
2019-Jul-14 19:59N 54°38' W 005°53'0 0.0
2019-Jul-14 19:29N 54°38' W 005°53'0 0.0
2019-Jul-14 18:59N 54°38' W 005°53'0 0.0
2019-Jul-14 18:29N 54°38' W 005°53'3 6.7
2019-Jul-14 18:00N 54°36' W 005°48'3799.8 060 / 101024.010.8 19.013.516.0
2019-Jul-14 17:59N 54°38' W 005°53'0 0.0
2019-Jul-14 17:29N 54°38' W 005°53'0 0.0
2019-Jul-14 16:58N 54°38' W 005°53'0 0.0
2019-Jul-14 16:28N 54°38' W 005°53'0 0.0
2019-Jul-14 15:58N 54°38' W 005°53'0 0.0
2019-Jul-14 15:28N 54°38' W 005°53'0 0.0
2019-Jul-14 14:58N 54°38' W 005°53'0 0.0
2019-Jul-14 14:28N 54°38' W 005°53'0 0.0
2019-Jul-14 13:58N 54°38' W 005°53'0 0.0
2019-Jul-14 13:28N 54°38' W 005°53'3 7.0
2019-Jul-14 13:00N 54°36' W 005°48'3146.3 050 / 91022.0 18.113.214.9
2019-Jul-14 12:58N 54°38' W 005°53'0 0.0
2019-Jul-14 12:25N 54°38' W 005°53'0 0.0
2019-Jul-14 11:58N 54°38' W 005°53'0 0.0
2019-Jul-14 11:28N 54°38' W 005°53'3 7.0
2019-Jul-14 11:00N 54°36' W 005°48'3144.4 080 / 81024.0 0.3 17.0 1.1
2019-Jul-14 10:58N 54°38' W 005°53'0 0.0
2019-Jul-14 10:28N 54°38' W 005°53'0 0.0
2019-Jul-14 09:58N 54°38' W 005°53'0 0.0
2019-Jul-14 09:28N 54°38' W 005°53'0 0.0
2019-Jul-14 08:58N 54°38' W 005°53'0 0.0
2019-Jul-14 08:28N 54°38' W 005°53'0 0.0
2019-Jul-14 07:58N 54°38' W 005°53'0 0.0
2019-Jul-14 07:28N 54°38' W 005°53'0 0.0
2019-Jul-14 07:00N 54°38' W 005°53'0 0.3
2019-Jul-14 06:26N 54°38' W 005°53'1 2.9
2019-Jul-14 05:56N 54°39' W 005°52'512.1
2019-Jul-14 05:30N 54°42' W 005°45'714.6
2019-Jul-14 05:00N 54°44' W 005°33'714.6
2019-Jul-14 04:30N 54°39' W 005°24'815.3
2019-Jul-14 04:00N 54°32' W 005°18'714.3
2019-Jul-14 03:31N 54°26' W 005°13'510.7
2019-Jul-14 03:00N 54°21' W 005°09'4409.6
2019-Jul-14 03:00N 54°24' W 005°12'919.1 340 / 251024.010.8 14.012.214.0
2019-Jul-14 02:30N 54°16' W 005°05'510.8
2019-Jul-14 02:00N 54°11' W 005°01'2211.1
2019-Jul-14 00:00N 53°54' W 004°36'1112.7 350 / 281022.010.8 12.7 5.411.2
2019-Jul-13 23:06N 53°48' W 004°20'311.8
2019-Jul-13 22:49N 53°46' W 004°15'411.8
2019-Jul-13 22:29N 53°44' W 004°09'611.7
2019-Jul-13 22:00N 53°41' W 004°01'9581.7
2019-Jul-13 22:00N 53°36' W 003°48'4 7.6 340 / 161023.0 0.3 14.0 8.0
2019-Jul-13 21:30N 53°38' W 003°53'510.9
2019-Jul-13 21:00N 53°35' W 003°45'510.1
2019-Jul-13 20:30N 53°34' W 003°37'510.3
2019-Jul-13 20:00N 53°33' W 003°29'5 9.9
2019-Jul-13 19:30N 53°32' W 003°20'4 8.6
2019-Jul-13 19:00N 53°31' W 003°13'611.6
2019-Jul-13 18:30N 53°29' W 003°05'5 9.7
2019-Jul-13 18:00N 53°25' W 003°00'0 0.4
2019-Jul-13 17:28N 53°25' W 003°00'1 1.2
2019-Jul-13 17:00N 53°24' W 003°00'119.6 320 / 151024.010.8 18.014.020.0
2019-Jul-13 16:58N 53°25' W 003°00'0 0.0
2019-Jul-13 16:28N 53°25' W 003°00'0 0.0
2019-Jul-13 15:58N 53°25' W 003°00'0 0.0
2019-Jul-13 15:28N 53°25' W 003°00'0 0.0
2019-Jul-13 14:58N 53°25' W 003°00'0 0.0
2019-Jul-13 14:28N 53°25' W 003°00'0 0.0
2019-Jul-13 13:58N 53°25' W 003°00'0 0.0
2019-Jul-13 13:28N 53°25' W 003°00'0 0.0
2019-Jul-13 12:58N 53°25' W 003°00'0 0.0
2019-Jul-13 12:28N 53°25' W 003°00'1 1.2
2019-Jul-13 12:00N 53°24' W 003°00'119.8 300 / 111022.0 16.110.715.8
2019-Jul-13 11:58N 53°25' W 003°00'0 0.0
2019-Jul-13 11:28N 53°25' W 003°00'0 0.0
2019-Jul-13 10:58N 53°25' W 003°00'0 0.0
2019-Jul-13 10:28N 53°25' W 003°00'1 1.2
2019-Jul-13 10:00N 53°24' W 003°00'119.4 260 / 121020.0 0.3 15.011.3
2019-Jul-13 09:58N 53°25' W 003°00'0 0.0
2019-Jul-13 09:28N 53°25' W 003°00'0 0.0
2019-Jul-13 08:58N 53°25' W 003°00'0 0.0
2019-Jul-13 08:29N 53°25' W 003°00'0 0.0
2019-Jul-13 08:00N 53°25' W 003°00'0 0.0
2019-Jul-13 07:30N 53°25' W 003°00'0 0.0
2019-Jul-13 07:00N 53°25' W 003°00'0 0.0
2019-Jul-13 06:30N 53°25' W 003°00'0 0.0
2019-Jul-13 06:00N 53°25' W 003°00'1122.4
2019-Jul-13 06:00N 53°24' W 003°00'1 1.1 280 / 151022.010.8 16.013.719.0
2019-Jul-13 05:30N 53°25' W 003°00'0 0.0
2019-Jul-13 05:00N 53°25' W 003°00'1 1.1
2019-Jul-13 04:30N 53°25' W 003°01'510.2
2019-Jul-13 04:00N 53°29' W 003°05'510.1
2019-Jul-13 03:30N 53°31' W 003°13'510.9
2019-Jul-13 03:00N 53°31' W 003°22'5 9.9
2019-Jul-13 02:30N 53°31' W 003°30'611.8
2019-Jul-13 02:00N 53°31' W 003°40'612.0
2019-Jul-13 01:30N 53°32' W 003°50'612.0
2019-Jul-13 01:00N 53°33' W 004°00'612.2
2019-Jul-13 00:30N 53°34' W 004°10'612.1
2019-Jul-12 23:59N 53°35' W 004°21'1010.2
2019-Jul-12 23:00N 53°30' W 004°36'1414.3 330 / 201020.010.8 15.015.014.0
2019-Jul-12 22:00N 53°30' W 005°00'2212.3 320 / 111020.0 0.3 15.011.3
2019-Jul-12 20:13N 53°24' W 005°35'312.4
2019-Jul-12 19:59N 53°23' W 005°40'612.1
2019-Jul-12 19:30N 53°21' W 005°49'711.7
2019-Jul-12 18:55N 53°21' W 006°00'410.3
2019-Jul-12 18:30N 53°21' W 006°07'3 6.6
2019-Jul-12 18:00N 53°21' W 006°13'5400.4
2019-Jul-12 18:00N 53°18' W 006°06'5 6.4 310 / 141020.010.8 18.016.318.0
2019-Jul-12 17:14N 53°21' W 006°13'0 0.0
2019-Jul-12 16:41N 53°21' W 006°13'0 0.0
2019-Jul-12 16:29N 53°21' W 006°13'0 0.0
2019-Jul-12 15:56N 53°21' W 006°13'0 0.0
2019-Jul-12 15:29N 53°21' W 006°13'0 0.0
2019-Jul-12 14:59N 53°21' W 006°13'0 0.0
2019-Jul-12 14:29N 53°21' W 006°13'3 5.7
2019-Jul-12 14:00N 53°18' W 006°12'3251.6 270 / 201019.010.8 19.019.018.0
2019-Jul-12 13:59N 53°21' W 006°13'0 0.0
2019-Jul-12 13:29N 53°21' W 006°13'0 0.0
2019-Jul-12 12:59N 53°21' W 006°13'0 0.0
2019-Jul-12 12:29N 53°21' W 006°13'0 0.0
2019-Jul-12 11:56N 53°21' W 006°13'0 0.0
2019-Jul-12 11:23N 53°21' W 006°13'0 0.0
2019-Jul-12 10:53N 53°21' W 006°13'0 0.0
2019-Jul-12 10:26N 53°21' W 006°13'0 0.0
2019-Jul-12 09:56N 53°21' W 006°13'0 0.0
2019-Jul-12 09:23N 53°21' W 006°13'0 0.0
2019-Jul-12 08:59N 53°21' W 006°13'0 0.0
2019-Jul-12 08:29N 53°21' W 006°13'3 5.7
2019-Jul-12 08:00N 53°18' W 006°12'3251.6 290 / 191015.0 0.3 18.0 5.8
2019-Jul-12 07:59N 53°21' W 006°13'0 0.0
2019-Jul-12 07:29N 53°21' W 006°13'0 0.0
2019-Jul-12 06:56N 53°21' W 006°13'0 0.0
2019-Jul-12 06:29N 53°21' W 006°13'0 0.0
2019-Jul-12 05:59N 53°21' W 006°13'0 0.0
2019-Jul-12 05:29N 53°21' W 006°13'3 5.7
2019-Jul-12 05:00N 53°18' W 006°12'3251.6 290 / 161015.810.8 16.013.218.0
2019-Jul-12 04:59N 53°21' W 006°13'0 0.0
2019-Jul-12 04:29N 53°21' W 006°13'0 0.0
2019-Jul-12 03:59N 53°21' W 006°13'0 0.0
2019-Jul-12 03:29N 53°21' W 006°13'0 0.0
2019-Jul-12 02:44N 53°21' W 006°13'0 0.0
2019-Jul-12 01:44N 53°21' W 006°13'0 0.0
2019-Jul-12 01:17N 53°21' W 006°13'0 0.0
2019-Jul-12 00:50N 53°21' W 006°13'0 0.0
2019-Jul-12 00:20N 53°21' W 006°13'3 8.3
2019-Jul-12 00:00N 53°18' W 006°12'313.2 200 / 91012.0 20.6 8.521.3
2019-Jul-11 23:47N 53°21' W 006°13'0 0.0
2019-Jul-11 23:11N 53°21' W 006°13'0 0.0
2019-Jul-11 22:59N 53°21' W 006°13'0 0.0
2019-Jul-11 22:29N 53°21' W 006°13'3 5.7
2019-Jul-11 22:00N 53°18' W 006°12'3239.6 270 / 101008.0 0.3 18.010.6
2019-Jul-11 21:59N 53°21' W 006°13'0 0.0
2019-Jul-11 21:29N 53°21' W 006°13'0 0.0
2019-Jul-11 20:49N 53°21' W 006°13'0 0.0
2019-Jul-11 20:13N 53°21' W 006°13'0 0.0
2019-Jul-11 19:58N 53°21' W 006°13'0 0.0
2019-Jul-11 19:27N 53°21' W 006°13'0 0.0
2019-Jul-11 18:57N 53°21' W 006°13'0 0.0
2019-Jul-11 18:14N 53°21' W 006°13'0 0.0
2019-Jul-11 17:59N 53°21' W 006°13'0 0.0
2019-Jul-11 17:29N 53°21' W 006°13'0 0.0
2019-Jul-11 16:59N 53°21' W 006°13'0 0.0
2019-Jul-11 16:26N 53°21' W 006°13'0 0.0
2019-Jul-11 16:00N 53°21' W 006°13'367284.3
2019-Jul-11 16:00N 53°18' W 005°12'3673.6 090 / 41009.010.8 21.019.418.0
2019-Jul-11 15:30N 53°21' W 006°13'0 0.0
2019-Jul-11 14:53N 53°21' W 006°13'0 0.0
2019-Jul-11 14:29N 53°21' W 006°13'3 5.7
2019-Jul-11 14:00N 53°18' W 006°12'397.7 260 / 151009.010.8 21.021.018.0
2019-Jul-11 13:58N 53°21' W 006°13'0 0.0
2019-Jul-11 13:24N 53°21' W 006°13'0 0.0
2019-Jul-11 12:54N 53°21' W 006°13'0 0.0
2019-Jul-11 12:21N 53°21' W 006°13'0 0.0
2019-Jul-11 11:48N 53°21' W 006°13'0 0.0
2019-Jul-11 11:29N 53°21' W 006°13'0 0.0
2019-Jul-11 10:58N 53°21' W 006°13'0 0.0
2019-Jul-11 10:21N 53°21' W 006°13'0 0.0
2019-Jul-11 09:52N 53°21' W 006°13'0 0.0
2019-Jul-11 09:30N 53°21' W 006°13'0 0.0
2019-Jul-11 08:52N 53°21' W 006°13'0 0.0
2019-Jul-11 08:13N 53°21' W 006°13'0 0.0
2019-Jul-11 07:39N 53°21' W 006°13'0 0.0
2019-Jul-11 07:03N 53°21' W 006°13'0 0.0
2019-Jul-11 07:00N 53°21' W 006°13'3218.8
2019-Jul-11 07:00N 53°18' W 006°12'3 5.7 220 / 61008.0 0.3 21.012.2
2019-Jul-11 06:30N 53°21' W 006°13'0 0.0
2019-Jul-11 06:00N 53°21' W 006°13'1 1.2
2019-Jul-11 05:29N 53°21' W 006°12'3 6.7
2019-Jul-11 05:00N 53°20' W 006°06'3 5.4
2019-Jul-11 04:30N 53°21' W 006°02'510.7
2019-Jul-11 04:00N 53°19' W 005°54'612.4
2019-Jul-11 03:30N 53°15' W 005°45'612.1
2019-Jul-11 03:00N 53°11' W 005°38'3190.9
2019-Jul-11 03:00N 53°12' W 005°42'816.5 210 / 211009.010.8 16.012.414.0
2019-Jul-11 02:30N 53°05' W 005°35'612.5
2019-Jul-11 02:00N 52°59' W 005°36'713.1
2019-Jul-11 01:30N 52°52' W 005°37'713.7
2019-Jul-11 01:00N 52°46' W 005°41'714.2
2019-Jul-11 00:29N 52°39' W 005°44'714.0
2019-Jul-11 00:00N 52°32' W 005°47'8592.5
2019-Jul-11 00:00N 52°24' W 005°48'2 4.4 220 / 181012.010.8 14.6 7.815.0
2019-Jul-10 23:30N 52°25' W 005°51'714.5
2019-Jul-10 23:00N 52°18' W 005°55'714.7
2019-Jul-10 22:30N 52°11' W 005°58'713.8
2019-Jul-10 22:00N 52°05' W 006°04'6430.1
2019-Jul-10 22:00N 52°00' W 006°00'918.4 240 / 151014.0 0.3 17.011.5
2019-Jul-10 21:30N 52°02' W 006°14'714.5
2019-Jul-10 21:00N 52°00' W 006°26'815.9
2019-Jul-10 20:30N 51°58' W 006°38'816.5
2019-Jul-10 20:00N 51°56' W 006°51'1516.9
2019-Jul-10 19:08N 51°53' W 007°14'217.0
2019-Jul-10 19:00N 51°52' W 007°18'816.9
2019-Jul-10 18:30N 51°50' W 007°31'917.1
2019-Jul-10 18:00N 51°48' W 007°44'817.0
2019-Jul-10 17:30N 51°46' W 007°58'815.6
2019-Jul-10 17:00N 51°45' W 008°10'7454.4
2019-Jul-10 17:00N 51°48' W 008°00'1021.0 230 / 191014.010.8 18.016.318.0
2019-Jul-10 16:30N 51°49' W 008°16'2 4.0
2019-Jul-10 15:58N 51°51' W 008°18'0 0.0
2019-Jul-10 15:27N 51°51' W 008°18'0 0.0
2019-Jul-10 15:00N 51°51' W 008°18'0 0.0
2019-Jul-10 14:31N 51°51' W 008°18'0 0.0
2019-Jul-10 14:00N 51°51' W 008°18'0 0.0
2019-Jul-10 13:30N 51°51' W 008°18'0 0.0
2019-Jul-10 13:00N 51°51' W 008°18'0 0.0
2019-Jul-10 12:30N 51°51' W 008°18'0 0.0
2019-Jul-10 12:00N 51°51' W 008°18'0 0.0
2019-Jul-10 11:30N 51°51' W 008°18'0 0.0
2019-Jul-10 11:00N 51°51' W 008°18'0 0.0
2019-Jul-10 10:30N 51°51' W 008°18'0 0.0
2019-Jul-10 10:00N 51°51' W 008°18'0 0.0
2019-Jul-10 09:29N 51°51' W 008°18'5 9.4
2019-Jul-10 09:00N 51°48' W 008°12'5763.2 220 / 101025.0 0.3 18.012.6
2019-Jul-10 08:59N 51°51' W 008°18'0 0.0
2019-Jul-10 08:29N 51°51' W 008°18'0 0.0
2019-Jul-10 07:59N 51°51' W 008°18'0 0.2
2019-Jul-10 07:30N 51°51' W 008°18'1 2.4
2019-Jul-10 07:00N 51°51' W 008°16'611.1
2019-Jul-10 06:30N 51°45' W 008°15'612.1
2019-Jul-10 06:00N 51°41' W 008°08'713.8
2019-Jul-10 05:30N 51°36' W 008°00'714.6
2019-Jul-10 05:00N 51°31' W 007°52'715.0
2019-Jul-10 04:30N 51°26' W 007°43'815.4
2019-Jul-10 04:00N 51°21' W 007°34'6407.2
2019-Jul-10 04:00N 51°24' W 007°42'1526.4 230 / 181019.010.8 18.016.319.0
2019-Jul-10 03:26N 51°15' W 007°23'2819.3
2019-Jul-10 02:00N 50°54' W 006°54'1712.7 240 / 121019.010.8 17.0 8.018.2
2019-Jul-10 00:40N 50°44' W 006°33'  
Track history (hours):
 
Tides and Currents Weather Stations Pressure Air Temp Water Temp Dewpoint Dewpoint Depression Visibility Wind Speed Wind Dir Waves Ship Positions

Celebrity Reflection

Last reported at 2019-Jul-20 00:31 UTC. Time now 2019-Jul-20 00:59 UTC.
Position N 52°28' E 004°36'.

Length 319 m; draft 8.6 m.

Type: Passenger vessel. MMSI: 229074000.

Date/timePositionNaut miles runAvg speedWind from/ knotsBaromVisibWave heightAir tempDewpointWater temp
2019-Jul-20 00:31N 52°28' E 004°36'1 2.6
2019-Jul-20 00:01N 52°28' E 004°34'611.4
2019-Jul-19 23:31N 52°29' E 004°25'612.9
2019-Jul-19 23:00N 52°29' E 004°14'30119361.6
2019-Jul-19 23:00N 52°24' W 004°00'294609.3 160 / 201009.010.8 19.019.018.0
2019-Jul-19 22:31N 52°28' E 004°02'714.1
2019-Jul-19 22:01N 52°25' E 003°52'714.4
2019-Jul-19 21:31N 52°21' E 003°42'714.2
2019-Jul-19 21:01N 52°17' E 003°32'2144.5
2019-Jul-19 21:00N 52°18' E 003°36'919.3 170 / 171011.0 0.3 18.012.7
2019-Jul-19 20:30N 52°12' E 003°24'713.6
2019-Jul-19 20:01N 52°10' E 003°13'1015.2
2019-Jul-19 19:20N 52°04' E 003°00'1617.4
2019-Jul-19 18:27N 51°52' E 002°43'917.3
2019-Jul-19 17:56N 51°44' E 002°40'1016.4
2019-Jul-19 17:20N 51°34' E 002°42'617.0
2019-Jul-19 17:00N 51°28' E 002°42'713.6
2019-Jul-19 16:30N 51°22' E 002°45'612.7
2019-Jul-19 16:00N 51°23' E 002°55'3193.1
2019-Jul-19 16:00N 51°24' E 003°00'4 8.3 230 / 141012.010.8 20.018.420.0
2019-Jul-19 15:30N 51°24' E 003°06'510.1
2019-Jul-19 15:00N 51°20' E 003°12'0 0.1
2019-Jul-19 14:30N 51°20' E 003°12'0 0.0
2019-Jul-19 14:00N 51°20' E 003°12'0 0.0
2019-Jul-19 13:30N 51°20' E 003°12'0 0.0
2019-Jul-19 12:59N 51°20' E 003°12'0 0.0
2019-Jul-19 12:29N 51°20' E 003°12'0 0.0
2019-Jul-19 11:59N 51°20' E 003°12'0 0.0
2019-Jul-19 11:30N 51°20' E 003°12'0 0.0
2019-Jul-19 11:00N 51°20' E 003°12'2188.2
2019-Jul-19 11:00N 51°18' E 003°12'2 5.0 280 / 41009.0 21.8 8.022.3
2019-Jul-19 10:30N 51°20' E 003°12'0 0.0
2019-Jul-19 10:00N 51°20' E 003°12'0 0.0
2019-Jul-19 09:31N 51°20' E 003°12'0 0.0
2019-Jul-19 09:00N 51°20' E 003°12'0 0.0
2019-Jul-19 08:30N 51°20' E 003°12'0 0.0
2019-Jul-19 08:00N 51°20' E 003°12'2188.2
2019-Jul-19 08:00N 51°18' E 003°12'2 4.7 200 / 151013.0 0.3 22.011.3
2019-Jul-19 07:28N 51°20' E 003°12'0 0.0
2019-Jul-19 06:59N 51°20' E 003°12'0 0.0
2019-Jul-19 06:30N 51°20' E 003°12'0 0.0
2019-Jul-19 06:00N 51°20' E 003°12'0 0.0
2019-Jul-19 05:30N 51°20' E 003°12'0 0.0
2019-Jul-19 05:00N 51°20' E 003°12'0 0.4
2019-Jul-19 04:30N 51°21' E 003°12'5 9.1
2019-Jul-19 04:00N 51°24' E 003°07'10768.3
2019-Jul-19 04:00N 51°18' E 002°54'4 8.4 260 / 91011.010.8 18.016.320.0
2019-Jul-19 03:30N 51°22' E 002°54'612.8
2019-Jul-19 03:00N 51°22' E 002°44'2 4.6
2019-Jul-19 02:30N 51°22' E 002°40'3 5.3
2019-Jul-19 02:00N 51°22' E 002°36'5339.5
2019-Jul-19 02:00N 51°18' E 002°30'4 8.4 270 / 111009.010.8 18.018.019.0
2019-Jul-19 01:30N 51°22' E 002°31'4 7.8
2019-Jul-19 01:00N 51°21' E 002°25'4 7.7
2019-Jul-19 00:30N 51°19' E 002°19'4 7.1
2019-Jul-19 00:00N 51°18' E 002°14'3 6.6
2019-Jul-18 23:31N 51°16' E 002°10'3 6.8
2019-Jul-18 23:00N 51°14' E 002°05'3 6.7
2019-Jul-18 22:30N 51°13' E 002°00'3 6.2
2019-Jul-18 22:00N 51°11' E 001°56'194.7
2019-Jul-18 22:00N 51°12' E 001°54'3 5.7 240 / 141010.0 0.3 17.013.5
2019-Jul-18 21:30N 51°10' E 001°52'3 6.0
2019-Jul-18 21:00N 51°08' E 001°48'3 5.9
2019-Jul-18 20:30N 51°06' E 001°44'3 5.8
2019-Jul-18 20:00N 51°04' E 001°41'3 5.9
2019-Jul-18 19:30N 51°02' E 001°37'3 5.7
2019-Jul-18 19:00N 51°01' E 001°33'3 5.1
2019-Jul-18 18:30N 51°02' E 001°29'3 5.8
2019-Jul-18 18:00N 51°04' E 001°26'2 3.9
2019-Jul-18 17:30N 51°03' E 001°23'1 2.8
2019-Jul-18 17:00N 51°04' E 001°21'5301.5
2019-Jul-18 17:00N 51°00' E 001°18'713.6 220 / 211009.010.8 18.015.718.0
2019-Jul-18 16:30N 51°06' E 001°21'1 2.3
2019-Jul-18 16:01N 51°07' E 001°19'0 0.0
2019-Jul-18 15:28N 51°07' E 001°19'0 0.0
2019-Jul-18 14:58N 51°07' E 001°19'0 0.0
2019-Jul-18 14:30N 51°07' E 001°19'0 0.0
2019-Jul-18 14:00N 51°07' E 001°19'0 0.0
2019-Jul-18 13:29N 51°07' E 001°19'0 0.0
2019-Jul-18 12:58N 51°07' E 001°19'0 0.0
2019-Jul-18 12:28N 51°07' E 001°19'0 0.0
2019-Jul-18 11:56N 51°07' E 001°19'0 0.0
2019-Jul-18 11:30N 51°07' E 001°19'0 0.0
2019-Jul-18 10:55N 51°07' E 001°19'0 0.0
2019-Jul-18 10:24N 51°07' E 001°19'1 2.8
2019-Jul-18 10:00N 51°06' E 001°18'1695.7 210 / 281009.0 0.1 16.014.3
2019-Jul-18 09:59N 51°07' E 001°19'0 0.0
2019-Jul-18 09:30N 51°07' E 001°19'0 0.0
2019-Jul-18 09:00N 51°07' E 001°19'0 0.0
2019-Jul-18 08:29N 51°07' E 001°19'0 0.0
2019-Jul-18 07:59N 51°07' E 001°19'0 0.0
2019-Jul-18 07:30N 51°07' E 001°19'1 2.3
2019-Jul-18 07:00N 51°06' E 001°18'130.0 220 / 201011.010.8 18.016.219.0
2019-Jul-18 06:57N 51°07' E 001°19'0 0.0
2019-Jul-18 06:31N 51°07' E 001°19'0 0.2
2019-Jul-18 06:00N 51°07' E 001°20'3 7.0
2019-Jul-18 05:30N 51°07' E 001°25'4 7.7
2019-Jul-18 05:00N 51°04' E 001°29'4 7.1
2019-Jul-18 04:31N 51°01' E 001°31'510.4
2019-Jul-18 04:00N 50°56' E 001°27'611.9
2019-Jul-18 03:30N 50°51' E 001°24'612.0
2019-Jul-18 03:00N 50°45' E 001°22'4388.6
2019-Jul-18 03:00N 50°42' E 001°18'3 5.2 240 / 141009.010.8 17.015.318.0
2019-Jul-18 02:28N 50°40' E 001°16'612.1
2019-Jul-18 01:59N 50°36' E 001°09'612.2
2019-Jul-18 01:30N 50°32' E 001°02'612.1
2019-Jul-18 01:00N 50°29' E 000°53'613.2
2019-Jul-18 00:30N 50°26' E 000°44'713.4
2019-Jul-18 00:00N 50°24' E 000°34'612.5
2019-Jul-17 23:30N 50°23' E 000°25'612.4
2019-Jul-17 23:00N 50°21' E 000°16'712.4
2019-Jul-17 22:29N 50°18' E 000°06'612.0
2019-Jul-17 22:00N 50°14' W 000°00'2129.0
2019-Jul-17 22:00N 50°12' E 000°00'4 9.0 250 / 161012.010.8 17.017.016.0
2019-Jul-17 21:30N 50°08' W 000°03'612.4
2019-Jul-17 21:00N 50°02' W 000°05'612.4
2019-Jul-17 20:30N 49°56' W 000°07'612.4
2019-Jul-17 20:00N 49°50' W 000°09'3158.2
2019-Jul-17 20:00N 49°48' W 000°06'510.5 280 / 151012.0 0.3 16.012.4
2019-Jul-17 19:31N 49°44' W 000°10'612.4
2019-Jul-17 19:00N 49°38' W 000°05'612.7
2019-Jul-17 18:30N 49°33' W 000°01'611.3
2019-Jul-17 18:00N 49°29' E 000°06'0 0.6
2019-Jul-17 17:28N 49°29' E 000°06'0 0.0
2019-Jul-17 16:58N 49°29' E 000°06'0 0.0
2019-Jul-17 16:28N 49°29' E 000°06'0 0.0
2019-Jul-17 15:59N 49°29' E 000°06'0 0.0
2019-Jul-17 15:28N 49°29' E 000°06'919.7
2019-Jul-17 15:00N 49°24' W 000°06'9429.0 340 / 61014.010.8 21.019.420.0
2019-Jul-17 14:58N 49°29' E 000°06'0 0.0
2019-Jul-17 14:30N 49°29' E 000°06'918.4
2019-Jul-17 14:00N 49°24' W 000°06'9292.1 320 / 81013.027.0 19.9 8.720.2
2019-Jul-17 13:58N 49°29' E 000°06'0 0.0
2019-Jul-17 13:29N 49°29' E 000°06'0 0.0
2019-Jul-17 12:58N 49°29' E 000°06'0 0.0
2019-Jul-17 12:28N 49°29' E 000°06'0 0.0
2019-Jul-17 12:00N 49°29' E 000°06'0 0.0
2019-Jul-17 11:30N 49°29' E 000°06'0 0.0
2019-Jul-17 11:00N 49°29' E 000°06'0 0.0
2019-Jul-17 10:29N 49°29' E 000°06'0 0.0
2019-Jul-17 10:00N 49°29' E 000°06'0 0.0
2019-Jul-17 09:30N 49°29' E 000°06'0 0.0
2019-Jul-17 09:00N 49°29' E 000°06'0 0.0
2019-Jul-17 08:30N 49°29' E 000°06'0 0.0
2019-Jul-17 07:59N 49°29' E 000°06'0 0.0
2019-Jul-17 07:29N 49°29' E 000°06'919.0
2019-Jul-17 07:00N 49°24' W 000°06'92824.0 170 / 31014.0 0.3 19.0 9.6
2019-Jul-17 06:59N 49°29' E 000°06'0 0.0
2019-Jul-17 06:28N 49°29' E 000°06'0 0.0
2019-Jul-17 05:59N 49°29' E 000°06'0 0.0
2019-Jul-17 05:28N 49°29' E 000°06'0 0.0
2019-Jul-17 04:58N 49°29' E 000°06'0 0.3
2019-Jul-17 04:31N 49°29' E 000°07'1 2.5
2019-Jul-17 04:00N 49°29' E 000°05'713.6
2019-Jul-17 03:30N 49°31' W 000°05'4 8.3
2019-Jul-17 03:00N 49°32' W 000°11'4 8.0
2019-Jul-17 02:30N 49°34' W 000°17'4 8.1
2019-Jul-17 02:00N 49°36' W 000°22'7427.3
2019-Jul-17 02:00N 49°30' W 000°18'1021.2 340 / 61016.010.8 16.014.318.0
2019-Jul-17 01:30N 49°38' W 000°28'4 7.9
2019-Jul-17 01:00N 49°40' W 000°33'4 7.9
2019-Jul-17 00:30N 49°42' W 000°38'4 7.6
2019-Jul-17 00:00N 49°44' W 000°43'3 6.6
2019-Jul-16 23:30N 49°46' W 000°47'3 6.8
2019-Jul-16 23:00N 49°48' W 000°52'6445.9
2019-Jul-16 23:00N 49°42' W 000°48'919.3 360 / 61016.010.8 14.410.813.2
2019-Jul-16 22:30N 49°50' W 000°56'3 6.8
2019-Jul-16 22:00N 49°51' W 001°01'2 4.5
2019-Jul-16 21:30N 49°51' W 001°04'2 4.7
2019-Jul-16 21:01N 49°50' W 001°08'2121.4
2019-Jul-16 21:00N 49°48' W 001°06'4 7.5 010 / 21015.0 0.3 15.0 9.2
2019-Jul-16 20:30N 49°49' W 001°11'3 5.3
2019-Jul-16 20:01N 49°48' W 001°15'3 5.2
2019-Jul-16 19:31N 49°47' W 001°19'4 7.7
2019-Jul-16 19:01N 49°46' W 001°25'4 7.1
2019-Jul-16 18:31N 49°45' W 001°30'3 5.9
2019-Jul-16 18:01N 49°44' W 001°34'3 5.9
2019-Jul-16 17:31N 49°43' W 001°38'3 5.3
2019-Jul-16 17:00N 49°40' W 001°37'2294.9
2019-Jul-16 17:00N 49°42' W 001°36'3 4.3 090 / 101017.010.8 18.016.318.0
2019-Jul-16 16:15N 49°39' W 001°37'0 0.0
2019-Jul-16 15:15N 49°39' W 001°37'0 0.0
2019-Jul-16 14:15N 49°39' W 001°37'3 0.7
2019-Jul-16 10:00N 49°36' W 001°36'0 0.0 050 / 161018.0 18.3 9.617.6
2019-Jul-16 09:00N 49°36' W 001°36'3 0.8 080 / 91020.0 0.3 20.010.9
2019-Jul-16 04:31N 49°39' W 001°37'0 0.7
2019-Jul-16 04:28N 49°39' W 001°37'2 5.1
2019-Jul-16 04:00N 49°41' W 001°40'612.8
2019-Jul-16 03:30N 49°45' W 001°47'714.9
2019-Jul-16 03:00N 49°47' W 001°58'815.8
2019-Jul-16 02:29N 49°51' W 002°10'714.6
2019-Jul-16 02:00N 49°53' W 002°20'7452.8
2019-Jul-16 02:00N 49°48' W 002°12'1327.6 060 / 111021.010.8 16.012.816.0
2019-Jul-16 01:30N 49°52' W 002°32'815.1
2019-Jul-16 01:00N 49°50' W 002°43'815.1
2019-Jul-16 00:30N 49°50' W 002°55'714.9
2019-Jul-16 00:00N 49°50' W 003°06'815.0
2019-Jul-15 23:30N 49°50' W 003°18'815.3
2019-Jul-15 23:00N 49°51' W 003°30'815.3
2019-Jul-15 22:30N 49°51' W 003°42'815.3
2019-Jul-15 22:00N 49°51' W 003°53'3197.2
2019-Jul-15 22:00N 49°48' W 003°54'816.7 020 / 111019.0 0.3 16.0 8.1
2019-Jul-15 21:30N 49°51' W 004°05'815.3
2019-Jul-15 21:00N 49°52' W 004°17'815.4
2019-Jul-15 20:30N 49°52' W 004°29'815.4
2019-Jul-15 20:00N 49°52' W 004°41'815.4
2019-Jul-15 19:29N 49°52' W 004°53'815.1
2019-Jul-15 18:59N 49°52' W 005°05'715.3
2019-Jul-15 18:30N 49°52' W 005°17'815.1
2019-Jul-15 18:00N 49°52' W 005°28'2015.0
2019-Jul-15 16:39N 49°55' W 005°60'216.3
2019-Jul-15 16:31N 49°57' W 006°01'816.4
2019-Jul-15 16:00N 50°05' W 006°01'815.6
2019-Jul-15 15:30N 50°13' W 006°00'815.2
2019-Jul-15 15:00N 50°21' W 006°00'3158.7
2019-Jul-15 15:00N 50°18' W 006°00'1020.9 170 / 161019.010.8 20.016.718.0
2019-Jul-15 14:31N 50°28' W 006°00'2617.3
2019-Jul-15 13:00N 50°54' W 005°54'1214.0 140 / 71022.027.0 17.0 7.015.8
2019-Jul-15 12:08N 51°05' W 005°60'216.2
2019-Jul-15 12:00N 51°08' W 005°60'816.2
2019-Jul-15 11:30N 51°16' W 005°60'816.3
2019-Jul-15 11:00N 51°24' W 005°60'816.5
2019-Jul-15 10:30N 51°32' W 005°60'916.3
2019-Jul-15 09:58N 51°41' W 005°59'816.2
2019-Jul-15 09:30N 51°48' W 005°55'815.9
2019-Jul-15 09:00N 51°56' W 005°52'815.9
2019-Jul-15 08:30N 52°03' W 005°49'815.2
2019-Jul-15 08:00N 52°11' W 005°46'8524.3
2019-Jul-15 08:00N 52°18' W 005°42'3 5.7 190 / 61021.0 0.1 15.011.3
2019-Jul-15 07:30N 52°19' W 005°46'715.1
2019-Jul-15 07:00N 52°26' W 005°45'815.2
2019-Jul-15 06:30N 52°33' W 005°43'815.2
2019-Jul-15 06:00N 52°41' W 005°41'815.3
2019-Jul-15 05:31N 52°49' W 005°40'815.6
2019-Jul-15 05:01N 52°56' W 005°38'815.4
2019-Jul-15 04:30N 53°04' W 005°36'815.8
2019-Jul-15 04:00N 53°12' W 005°34'1312.3
2019-Jul-15 03:00N 53°24' W 005°30'3518.8 200 / 21022.010.8 16.014.116.0
2019-Jul-15 01:09N 53°58' W 005°23'215.8
2019-Jul-15 01:01N 54°01' W 005°23'917.7
2019-Jul-15 00:30N 54°10' W 005°21'816.4
2019-Jul-15 00:00N 54°18' W 005°20'1127.7
2019-Jul-15 00:00N 54°18' W 005°18'816.4 080 / 71020.027.0 14.210.015.8
2019-Jul-14 23:30N 54°26' W 005°20'816.1
2019-Jul-14 23:00N 54°34' W 005°24'815.7
2019-Jul-14 22:31N 54°41' W 005°27'713.2
2019-Jul-14 22:00N 54°43' W 005°38'612.2
2019-Jul-14 21:30N 54°41' W 005°48'5 8.8
2019-Jul-14 20:58N 54°38' W 005°53'0 0.1
2019-Jul-14 20:29N 54°38' W 005°53'3 6.7
2019-Jul-14 20:00N 54°36' W 005°48'3705.7 090 / 71022.0 0.3 16.0 8.1
2019-Jul-14 19:59N 54°38' W 005°53'0 0.0
2019-Jul-14 19:29N 54°38' W 005°53'0 0.0
2019-Jul-14 18:59N 54°38' W 005°53'0 0.0
2019-Jul-14 18:29N 54°38' W 005°53'3 6.7
2019-Jul-14 18:00N 54°36' W 005°48'3799.8 060 / 101024.010.8 19.013.516.0
2019-Jul-14 17:59N 54°38' W 005°53'0 0.0
2019-Jul-14 17:29N 54°38' W 005°53'0 0.0
2019-Jul-14 16:58N 54°38' W 005°53'0 0.0
2019-Jul-14 16:28N 54°38' W 005°53'0 0.0
2019-Jul-14 15:58N 54°38' W 005°53'0 0.0
2019-Jul-14 15:28N 54°38' W 005°53'0 0.0
2019-Jul-14 14:58N 54°38' W 005°53'0 0.0
2019-Jul-14 14:28N 54°38' W 005°53'0 0.0
2019-Jul-14 13:58N 54°38' W 005°53'0 0.0
2019-Jul-14 13:28N 54°38' W 005°53'3 7.0
2019-Jul-14 13:00N 54°36' W 005°48'3146.3 050 / 91022.0 18.113.214.9
2019-Jul-14 12:58N 54°38' W 005°53'0 0.0
2019-Jul-14 12:25N 54°38' W 005°53'0 0.0
2019-Jul-14 11:58N 54°38' W 005°53'0 0.0
2019-Jul-14 11:28N 54°38' W 005°53'3 7.0
2019-Jul-14 11:00N 54°36' W 005°48'3144.4 080 / 81024.0 0.3 17.0 1.1
2019-Jul-14 10:58N 54°38' W 005°53'0 0.0
2019-Jul-14 10:28N 54°38' W 005°53'0 0.0
2019-Jul-14 09:58N 54°38' W 005°53'0 0.0
2019-Jul-14 09:28N 54°38' W 005°53'0 0.0
2019-Jul-14 08:58N 54°38' W 005°53'0 0.0
2019-Jul-14 08:28N 54°38' W 005°53'0 0.0
2019-Jul-14 07:58N 54°38' W 005°53'0 0.0
2019-Jul-14 07:28N 54°38' W 005°53'0 0.0
2019-Jul-14 07:00N 54°38' W 005°53'0 0.3
2019-Jul-14 06:26N 54°38' W 005°53'1 2.9
2019-Jul-14 05:56N 54°39' W 005°52'512.1
2019-Jul-14 05:30N 54°42' W 005°45'714.6
2019-Jul-14 05:00N 54°44' W 005°33'714.6
2019-Jul-14 04:30N 54°39' W 005°24'815.3
2019-Jul-14 04:00N 54°32' W 005°18'714.3
2019-Jul-14 03:31N 54°26' W 005°13'510.7
2019-Jul-14 03:00N 54°21' W 005°09'4409.6
2019-Jul-14 03:00N 54°24' W 005°12'919.1 340 / 251024.010.8 14.012.214.0
2019-Jul-14 02:30N 54°16' W 005°05'510.8
2019-Jul-14 02:00N 54°11' W 005°01'2211.1
2019-Jul-14 00:00N 53°54' W 004°36'1112.7 350 / 281022.010.8 12.7 5.411.2
2019-Jul-13 23:06N 53°48' W 004°20'311.8
2019-Jul-13 22:49N 53°46' W 004°15'411.8
2019-Jul-13 22:29N 53°44' W 004°09'611.7
2019-Jul-13 22:00N 53°41' W 004°01'9581.7
2019-Jul-13 22:00N 53°36' W 003°48'4 7.6 340 / 161023.0 0.3 14.0 8.0
2019-Jul-13 21:30N 53°38' W 003°53'510.9
2019-Jul-13 21:00N 53°35' W 003°45'510.1
2019-Jul-13 20:30N 53°34' W 003°37'510.3
2019-Jul-13 20:00N 53°33' W 003°29'5 9.9
2019-Jul-13 19:30N 53°32' W 003°20'4 8.6
2019-Jul-13 19:00N 53°31' W 003°13'611.6
2019-Jul-13 18:30N 53°29' W 003°05'5 9.7
2019-Jul-13 18:00N 53°25' W 003°00'0 0.4
2019-Jul-13 17:28N 53°25' W 003°00'1 1.2
2019-Jul-13 17:00N 53°24' W 003°00'119.6 320 / 151024.010.8 18.014.020.0
2019-Jul-13 16:58N 53°25' W 003°00'0 0.0
2019-Jul-13 16:28N 53°25' W 003°00'0 0.0
2019-Jul-13 15:58N 53°25' W 003°00'0 0.0
2019-Jul-13 15:28N 53°25' W 003°00'0 0.0
2019-Jul-13 14:58N 53°25' W 003°00'0 0.0
2019-Jul-13 14:28N 53°25' W 003°00'0 0.0
2019-Jul-13 13:58N 53°25' W 003°00'0 0.0
2019-Jul-13 13:28N 53°25' W 003°00'0 0.0
2019-Jul-13 12:58N 53°25' W 003°00'0 0.0
2019-Jul-13 12:28N 53°25' W 003°00'1 1.2
2019-Jul-13 12:00N 53°24' W 003°00'119.8 300 / 111022.0 16.110.715.8
2019-Jul-13 11:58N 53°25' W 003°00'0 0.0
2019-Jul-13 11:28N 53°25' W 003°00'0 0.0
2019-Jul-13 10:58N 53°25' W 003°00'0 0.0
2019-Jul-13 10:28N 53°25' W 003°00'1 1.2
2019-Jul-13 10:00N 53°24' W 003°00'119.4 260 / 121020.0 0.3 15.011.3
2019-Jul-13 09:58N 53°25' W 003°00'0 0.0
2019-Jul-13 09:28N 53°25' W 003°00'0 0.0
2019-Jul-13 08:58N 53°25' W 003°00'0 0.0
2019-Jul-13 08:29N 53°25' W 003°00'0 0.0
2019-Jul-13 08:00N 53°25' W 003°00'0 0.0
2019-Jul-13 07:30N 53°25' W 003°00'0 0.0
2019-Jul-13 07:00N 53°25' W 003°00'0 0.0
2019-Jul-13 06:30N 53°25' W 003°00'0 0.0
2019-Jul-13 06:00N 53°25' W 003°00'1122.4
2019-Jul-13 06:00N 53°24' W 003°00'1 1.1 280 / 151022.010.8 16.013.719.0
2019-Jul-13 05:30N 53°25' W 003°00'0 0.0
2019-Jul-13 05:00N 53°25' W 003°00'1 1.1
2019-Jul-13 04:30N 53°25' W 003°01'510.2
2019-Jul-13 04:00N 53°29' W 003°05'510.1
2019-Jul-13 03:30N 53°31' W 003°13'510.9
2019-Jul-13 03:00N 53°31' W 003°22'5 9.9
2019-Jul-13 02:30N 53°31' W 003°30'611.8
2019-Jul-13 02:00N 53°31' W 003°40'612.0
2019-Jul-13 01:30N 53°32' W 003°50'612.0
2019-Jul-13 01:00N 53°33' W 004°00'612.2
2019-Jul-13 00:30N 53°34' W 004°10'612.1
2019-Jul-12 23:59N 53°35' W 004°21'1010.2
2019-Jul-12 23:00N 53°30' W 004°36'1414.3 330 / 201020.010.8 15.015.014.0
2019-Jul-12 22:00N 53°30' W 005°00'2212.3 320 / 111020.0 0.3 15.011.3
2019-Jul-12 20:13N 53°24' W 005°35'312.4
2019-Jul-12 19:59N 53°23' W 005°40'612.1
2019-Jul-12 19:30N 53°21' W 005°49'711.7
2019-Jul-12 18:55N 53°21' W 006°00'410.3
2019-Jul-12 18:30N 53°21' W 006°07'3 6.6
2019-Jul-12 18:00N 53°21' W 006°13'5400.4
2019-Jul-12 18:00N 53°18' W 006°06'5 6.4 310 / 141020.010.8 18.016.318.0
2019-Jul-12 17:14N 53°21' W 006°13'0 0.0
2019-Jul-12 16:41N 53°21' W 006°13'0 0.0
2019-Jul-12 16:29N 53°21' W 006°13'0 0.0
2019-Jul-12 15:56N 53°21' W 006°13'0 0.0
2019-Jul-12 15:29N 53°21' W 006°13'0 0.0
2019-Jul-12 14:59N 53°21' W 006°13'0 0.0
2019-Jul-12 14:29N 53°21' W 006°13'3 5.7
2019-Jul-12 14:00N 53°18' W 006°12'3251.6 270 / 201019.010.8 19.019.018.0
2019-Jul-12 13:59N 53°21' W 006°13'0 0.0
2019-Jul-12 13:29N 53°21' W 006°13'0 0.0
2019-Jul-12 12:59N 53°21' W 006°13'0 0.0
2019-Jul-12 12:29N 53°21' W 006°13'0 0.0
2019-Jul-12 11:56N 53°21' W 006°13'0 0.0
2019-Jul-12 11:23N 53°21' W 006°13'0 0.0
2019-Jul-12 10:53N 53°21' W 006°13'0 0.0
2019-Jul-12 10:26N 53°21' W 006°13'0 0.0
2019-Jul-12 09:56N 53°21' W 006°13'0 0.0
2019-Jul-12 09:23N 53°21' W 006°13'0 0.0
2019-Jul-12 08:59N 53°21' W 006°13'0 0.0
2019-Jul-12 08:29N 53°21' W 006°13'3 5.7
2019-Jul-12 08:00N 53°18' W 006°12'3251.6 290 / 191015.0 0.3 18.0 5.8
2019-Jul-12 07:59N 53°21' W 006°13'0 0.0
2019-Jul-12 07:29N 53°21' W 006°13'0 0.0
2019-Jul-12 06:56N 53°21' W 006°13'0 0.0
2019-Jul-12 06:29N 53°21' W 006°13'0 0.0
2019-Jul-12 05:59N 53°21' W 006°13'0 0.0
2019-Jul-12 05:29N 53°21' W 006°13'3 5.7
2019-Jul-12 05:00N 53°18' W 006°12'3251.6 290 / 161015.810.8 16.013.218.0
2019-Jul-12 04:59N 53°21' W 006°13'0 0.0
2019-Jul-12 04:29N 53°21' W 006°13'0 0.0
2019-Jul-12 03:59N 53°21' W 006°13'0 0.0
2019-Jul-12 03:29N 53°21' W 006°13'0 0.0
2019-Jul-12 02:44N 53°21' W 006°13'0 0.0
2019-Jul-12 01:44N 53°21' W 006°13'0 0.0
2019-Jul-12 01:17N 53°21' W 006°13'0 0.0
2019-Jul-12 00:50N 53°21' W 006°13'0 0.0
2019-Jul-12 00:20N 53°21' W 006°13'3 8.3
2019-Jul-12 00:00N 53°18' W 006°12'313.2 200 / 91012.0 20.6 8.521.3
2019-Jul-11 23:47N 53°21' W 006°13'0 0.0
2019-Jul-11 23:11N 53°21' W 006°13'0 0.0
2019-Jul-11 22:59N 53°21' W 006°13'0 0.0
2019-Jul-11 22:29N 53°21' W 006°13'3 5.7
2019-Jul-11 22:00N 53°18' W 006°12'3239.6 270 / 101008.0 0.3 18.010.6
2019-Jul-11 21:59N 53°21' W 006°13'0 0.0
2019-Jul-11 21:29N 53°21' W 006°13'0 0.0
2019-Jul-11 20:49N 53°21' W 006°13'0 0.0
2019-Jul-11 20:13N 53°21' W 006°13'0 0.0
2019-Jul-11 19:58N 53°21' W 006°13'0 0.0
2019-Jul-11 19:27N 53°21' W 006°13'0 0.0
2019-Jul-11 18:57N 53°21' W 006°13'0 0.0
2019-Jul-11 18:14N 53°21' W 006°13'0 0.0
2019-Jul-11 17:59N 53°21' W 006°13'0 0.0
2019-Jul-11 17:29N 53°21' W 006°13'0 0.0
2019-Jul-11 16:59N 53°21' W 006°13'0 0.0
2019-Jul-11 16:26N 53°21' W 006°13'0 0.0
2019-Jul-11 16:00N 53°21' W 006°13'367284.3
2019-Jul-11 16:00N 53°18' W 005°12'3673.6 090 / 41009.010.8 21.019.418.0
2019-Jul-11 15:30N 53°21' W 006°13'0 0.0
2019-Jul-11 14:53N 53°21' W 006°13'0 0.0
2019-Jul-11 14:29N 53°21' W 006°13'3 5.7
2019-Jul-11 14:00N 53°18' W 006°12'397.7 260 / 151009.010.8 21.021.018.0
2019-Jul-11 13:58N 53°21' W 006°13'0 0.0
2019-Jul-11 13:24N 53°21' W 006°13'0 0.0
2019-Jul-11 12:54N 53°21' W 006°13'0 0.0
2019-Jul-11 12:21N 53°21' W 006°13'0 0.0
2019-Jul-11 11:48N 53°21' W 006°13'0 0.0
2019-Jul-11 11:29N 53°21' W 006°13'0 0.0
2019-Jul-11 10:58N 53°21' W 006°13'0 0.0
2019-Jul-11 10:21N 53°21' W 006°13'0 0.0
2019-Jul-11 09:52N 53°21' W 006°13'0 0.0
2019-Jul-11 09:30N 53°21' W 006°13'0 0.0
2019-Jul-11 08:52N 53°21' W 006°13'0 0.0
2019-Jul-11 08:13N 53°21' W 006°13'0 0.0
2019-Jul-11 07:39N 53°21' W 006°13'0 0.0
2019-Jul-11 07:03N 53°21' W 006°13'0 0.0
2019-Jul-11 07:00N 53°21' W 006°13'3218.8
2019-Jul-11 07:00N 53°18' W 006°12'3 5.7 220 / 61008.0 0.3 21.012.2
2019-Jul-11 06:30N 53°21' W 006°13'0 0.0
2019-Jul-11 06:00N 53°21' W 006°13'1 1.2
2019-Jul-11 05:29N 53°21' W 006°12'3 6.7
2019-Jul-11 05:00N 53°20' W 006°06'3 5.4
2019-Jul-11 04:30N 53°21' W 006°02'510.7
2019-Jul-11 04:00N 53°19' W 005°54'612.4
2019-Jul-11 03:30N 53°15' W 005°45'612.1
2019-Jul-11 03:00N 53°11' W 005°38'3190.9
2019-Jul-11 03:00N 53°12' W 005°42'816.5 210 / 211009.010.8 16.012.414.0
2019-Jul-11 02:30N 53°05' W 005°35'612.5
2019-Jul-11 02:00N 52°59' W 005°36'713.1
2019-Jul-11 01:30N 52°52' W 005°37'713.7
2019-Jul-11 01:00N 52°46' W 005°41'714.2
2019-Jul-11 00:29N 52°39' W 005°44'714.0
2019-Jul-11 00:00N 52°32' W 005°47'8592.5
2019-Jul-11 00:00N 52°24' W 005°48'2 4.4 220 / 181012.010.8 14.6 7.815.0
2019-Jul-10 23:30N 52°25' W 005°51'714.5
2019-Jul-10 23:00N 52°18' W 005°55'714.7
2019-Jul-10 22:30N 52°11' W 005°58'713.8
2019-Jul-10 22:00N 52°05' W 006°04'6430.1
2019-Jul-10 22:00N 52°00' W 006°00'918.4 240 / 151014.0 0.3 17.011.5
2019-Jul-10 21:30N 52°02' W 006°14'714.5
2019-Jul-10 21:00N 52°00' W 006°26'815.9
2019-Jul-10 20:30N 51°58' W 006°38'816.5
2019-Jul-10 20:00N 51°56' W 006°51'1516.9
2019-Jul-10 19:08N 51°53' W 007°14'217.0
2019-Jul-10 19:00N 51°52' W 007°18'816.9
2019-Jul-10 18:30N 51°50' W 007°31'917.1
2019-Jul-10 18:00N 51°48' W 007°44'817.0
2019-Jul-10 17:30N 51°46' W 007°58'815.6
2019-Jul-10 17:00N 51°45' W 008°10'7454.4
2019-Jul-10 17:00N 51°48' W 008°00'1021.0 230 / 191014.010.8 18.016.318.0
2019-Jul-10 16:30N 51°49' W 008°16'2 4.0
2019-Jul-10 15:58N 51°51' W 008°18'0 0.0
2019-Jul-10 15:27N 51°51' W 008°18'0 0.0
2019-Jul-10 15:00N 51°51' W 008°18'0 0.0
2019-Jul-10 14:31N 51°51' W 008°18'0 0.0
2019-Jul-10 14:00N 51°51' W 008°18'0 0.0
2019-Jul-10 13:30N 51°51' W 008°18'0 0.0
2019-Jul-10 13:00N 51°51' W 008°18'0 0.0
2019-Jul-10 12:30N 51°51' W 008°18'0 0.0
2019-Jul-10 12:00N 51°51' W 008°18'0 0.0
2019-Jul-10 11:30N 51°51' W 008°18'0 0.0
2019-Jul-10 11:00N 51°51' W 008°18'0 0.0
2019-Jul-10 10:30N 51°51' W 008°18'0 0.0
2019-Jul-10 10:00N 51°51' W 008°18'0 0.0
2019-Jul-10 09:29N 51°51' W 008°18'5 9.4
2019-Jul-10 09:00N 51°48' W 008°12'5763.2 220 / 101025.0 0.3 18.012.6
2019-Jul-10 08:59N 51°51' W 008°18'0 0.0
2019-Jul-10 08:29N 51°51' W 008°18'0 0.0
2019-Jul-10 07:59N 51°51' W 008°18'0 0.2
2019-Jul-10 07:30N 51°51' W 008°18'1 2.4
2019-Jul-10 07:00N 51°51' W 008°16'611.1
2019-Jul-10 06:30N 51°45' W 008°15'612.1
2019-Jul-10 06:00N 51°41' W 008°08'713.8
2019-Jul-10 05:30N 51°36' W 008°00'714.6
2019-Jul-10 05:00N 51°31' W 007°52'715.0
2019-Jul-10 04:30N 51°26' W 007°43'815.4
2019-Jul-10 04:00N 51°21' W 007°34'6407.2
2019-Jul-10 04:00N 51°24' W 007°42'1526.4 230 / 181019.010.8 18.016.319.0
2019-Jul-10 03:26N 51°15' W 007°23'2819.3
2019-Jul-10 02:00N 50°54' W 006°54'1712.7 240 / 121019.010.8 17.0 8.018.2
2019-Jul-10 00:40N 50°44' W 006°33'  

Dump ship's entire track history